createdAt,value
2022-12-18T00:00:07.113Z,97.90
2022-12-18T00:02:42.946Z,97.29
2022-12-18T00:05:10.822Z,96.58
2022-12-18T00:07:38.796Z,94.90
2022-12-18T00:10:08.315Z,95.90
2022-12-18T00:12:36.061Z,96.20
2022-12-18T00:15:05.460Z,97.98
2022-12-18T00:17:33.275Z,97.38
2022-12-18T00:20:02.648Z,97.96
2022-12-18T00:22:30.336Z,98.88
2022-12-18T00:24:58.284Z,98.23
2022-12-18T00:27:25.987Z,98.31
2022-12-18T00:29:53.717Z,96.90
2022-12-18T00:32:21.527Z,96.54
2022-12-18T00:34:49.464Z,97.02
2022-12-18T00:37:20.476Z,99.23
2022-12-18T00:39:52.263Z,99.87
2022-12-18T00:42:40.156Z,100.00
2022-12-18T00:45:12.630Z,100.00
2022-12-18T00:47:41.367Z,100.00
2022-12-18T00:50:10.802Z,100.00
2022-12-18T00:52:43.531Z,99.73
2022-12-18T00:55:12.190Z,98.68
2022-12-18T00:57:40.052Z,98.18
2022-12-18T01:00:12.716Z,97.30
2022-12-18T01:02:41.556Z,95.34
2022-12-18T01:05:11.336Z,95.11
2022-12-18T01:07:39.249Z,95.47
2022-12-18T01:10:13.379Z,94.96
2022-12-18T01:12:41.610Z,95.66
2022-12-18T01:15:13.754Z,95.41
2022-12-18T01:17:41.825Z,96.07
2022-12-18T01:20:11.841Z,97.28
2022-12-18T01:22:39.899Z,97.50
2022-12-18T01:25:10.785Z,97.01
2022-12-18T01:27:38.556Z,96.35
2022-12-18T01:30:08.380Z,95.54
2022-12-18T01:32:36.152Z,95.94
2022-12-18T01:35:04.962Z,95.53
2022-12-18T01:37:32.821Z,96.51
2022-12-18T01:40:00.664Z,97.95
2022-12-18T01:42:29.835Z,98.82
2022-12-18T01:45:07.186Z,100.00
2022-12-18T01:47:41.568Z,100.00
2022-12-18T01:50:14.261Z,100.00
2022-12-18T01:52:44.743Z,100.00
2022-12-18T01:55:15.947Z,100.00
2022-12-18T01:57:45.960Z,100.00
2022-12-18T02:00:18.376Z,100.00
2022-12-18T02:02:48.210Z,100.00
2022-12-18T02:05:28.408Z,100.00
2022-12-18T02:08:10.611Z,100.00
2022-12-18T02:10:50.203Z,100.00
2022-12-18T02:13:33.285Z,100.00
2022-12-18T02:16:17.366Z,98.32
2022-12-18T02:18:52.157Z,97.07
2022-12-18T02:21:35.201Z,96.62
2022-12-18T02:24:30.453Z,95.81
2022-12-18T02:27:05.893Z,98.38
2022-12-18T02:29:39.815Z,100.00
2022-12-18T02:32:15.929Z,100.00
2022-12-18T02:34:46.974Z,100.00
2022-12-18T02:37:20.807Z,100.00
2022-12-18T02:39:54.033Z,100.00
2022-12-18T02:42:25.339Z,97.32
2022-12-18T02:44:56.724Z,97.43
2022-12-18T02:47:32.234Z,97.26
2022-12-18T02:50:14.427Z,96.47
2022-12-18T02:53:02.165Z,95.71
2022-12-18T02:55:54.425Z,95.10
2022-12-18T02:58:41.143Z,94.13
2022-12-18T03:01:24.282Z,93.57
2022-12-18T03:03:58.648Z,92.58
2022-12-18T03:06:33.027Z,92.52
2022-12-18T03:09:15.740Z,95.18
2022-12-18T03:12:12.280Z,100.00
2022-12-18T03:14:46.365Z,100.00
2022-12-18T03:17:24.303Z,100.00
2022-12-18T03:19:57.030Z,100.00
2022-12-18T03:22:30.207Z,100.00
2022-12-18T03:25:03.979Z,100.00
2022-12-18T03:27:36.945Z,100.00
2022-12-18T03:33:09.899Z,96.55
2022-12-18T03:35:43.693Z,95.95
2022-12-18T03:38:13.818Z,95.44
2022-12-18T03:40:59.314Z,94.88
2022-12-18T03:43:43.869Z,94.78
2022-12-18T03:46:27.752Z,94.47
2022-12-18T03:49:09.277Z,95.09
2022-12-18T03:51:45.866Z,97.69
2022-12-18T03:54:14.517Z,100.00
2022-12-18T03:56:58.077Z,100.00
2022-12-18T03:59:29.978Z,100.00
2022-12-18T04:02:04.045Z,100.00
2022-12-18T04:04:35.662Z,100.00
2022-12-18T04:07:07.251Z,100.00
2022-12-18T04:09:42.594Z,100.00
2022-12-18T04:12:11.259Z,100.00
2022-12-18T04:14:39.444Z,100.00
2022-12-18T04:17:11.207Z,100.00
2022-12-18T04:19:39.016Z,100.00
2022-12-18T04:22:06.869Z,97.12
2022-12-18T04:24:41.456Z,94.16
2022-12-18T04:27:19.991Z,93.02
2022-12-18T04:29:50.767Z,92.81
2022-12-18T04:32:20.839Z,91.03
2022-12-18T04:34:49.796Z,91.12
2022-12-18T04:37:18.621Z,90.36
2022-12-18T04:39:47.012Z,90.28
2022-12-18T04:42:22.346Z,90.58
2022-12-18T04:44:50.423Z,91.01
2022-12-18T04:47:18.219Z,93.56
2022-12-18T04:49:47.343Z,100.00
2022-12-18T04:52:15.453Z,100.00
2022-12-18T04:54:43.182Z,100.00
2022-12-18T04:57:11.035Z,100.00
2022-12-18T04:59:38.838Z,100.00
2022-12-18T05:02:06.831Z,100.00
2022-12-18T05:04:34.836Z,100.00
2022-12-18T05:07:04.213Z,100.00
2022-12-18T05:09:31.926Z,100.00
2022-12-18T05:11:59.627Z,99.50
2022-12-18T05:14:28.591Z,98.48
2022-12-18T05:17:00.645Z,100.00
2022-12-18T05:19:28.938Z,100.00
2022-12-18T05:21:56.711Z,100.00
2022-12-18T05:24:25.847Z,100.00
2022-12-18T05:26:53.864Z,100.00
2022-12-18T05:29:21.902Z,100.00
2022-12-18T05:31:49.722Z,100.00
2022-12-18T05:34:17.662Z,100.00
2022-12-18T05:36:45.460Z,100.00
2022-12-18T05:39:13.435Z,100.00
2022-12-18T05:41:42.816Z,100.00
2022-12-18T05:44:11.157Z,100.00
2022-12-18T05:46:46.357Z,100.00
2022-12-18T05:49:14.096Z,100.00
2022-12-18T05:51:41.762Z,100.00
2022-12-18T05:54:10.347Z,100.00
2022-12-18T05:56:38.090Z,100.00
2022-12-18T05:59:07.150Z,100.00
2022-12-18T06:01:35.020Z,100.00
2022-12-18T06:04:02.972Z,100.00
2022-12-18T06:06:31.146Z,100.00
2022-12-18T06:08:59.177Z,100.00
2022-12-18T06:11:28.050Z,100.00
2022-12-18T06:13:58.958Z,100.00
2022-12-18T06:16:30.240Z,99.87
2022-12-18T06:18:59.632Z,100.00
2022-12-18T06:21:28.860Z,100.00
2022-12-18T06:23:56.913Z,100.00
2022-12-18T06:26:28.257Z,100.00
2022-12-18T06:28:56.649Z,100.00
2022-12-18T06:31:24.800Z,100.00
2022-12-18T06:33:54.403Z,100.00
2022-12-18T06:36:22.659Z,100.00
2022-12-18T06:38:50.626Z,98.32
2022-12-18T06:41:21.751Z,98.33
2022-12-18T06:43:49.663Z,97.88
2022-12-18T06:46:17.638Z,97.36
2022-12-18T06:48:49.802Z,97.52
2022-12-18T06:51:21.263Z,97.78
2022-12-18T06:53:49.282Z,96.21
2022-12-18T06:56:17.294Z,94.40
2022-12-18T06:58:45.229Z,93.59
2022-12-18T07:01:15.168Z,92.97
2022-12-18T07:03:44.532Z,93.08
2022-12-18T07:06:16.860Z,97.34
2022-12-18T07:08:47.033Z,97.69
2022-12-18T07:11:15.934Z,96.26
2022-12-18T07:13:44.682Z,95.09
2022-12-18T07:16:22.324Z,94.83
2022-12-18T07:18:52.409Z,93.68
2022-12-18T07:21:21.490Z,94.74
2022-12-18T07:23:50.579Z,95.61
2022-12-18T07:26:22.465Z,95.44
2022-12-18T07:28:51.277Z,96.95
2022-12-18T07:31:22.504Z,98.09
2022-12-18T07:33:51.590Z,99.04
2022-12-18T07:36:20.080Z,100.00
2022-12-18T07:38:50.952Z,100.00
2022-12-18T07:41:19.672Z,100.00
2022-12-18T07:43:47.957Z,100.00
2022-12-18T07:46:17.325Z,100.00
2022-12-18T07:48:49.287Z,100.00
2022-12-18T07:51:19.535Z,100.00
2022-12-18T07:53:48.775Z,100.00
2022-12-18T07:56:27.842Z,100.00
2022-12-18T07:58:56.644Z,100.00
2022-12-18T08:01:25.251Z,100.00
2022-12-18T08:03:53.157Z,99.64
2022-12-18T08:06:23.294Z,98.24
2022-12-18T08:08:54.525Z,97.75
2022-12-18T08:11:27.114Z,98.61
2022-12-18T08:13:55.764Z,97.53
2022-12-18T08:16:24.192Z,97.39
2022-12-18T08:18:53.634Z,97.21
2022-12-18T08:21:24.787Z,96.82
2022-12-18T08:23:54.958Z,96.38
2022-12-18T08:26:26.664Z,96.45
2022-12-18T08:28:56.484Z,96.53
2022-12-18T08:31:25.967Z,97.04
2022-12-18T08:33:55.325Z,98.19
2022-12-18T08:36:24.884Z,98.99
2022-12-18T08:38:54.087Z,98.44
2022-12-18T08:41:23.973Z,97.32
2022-12-18T08:44:10.359Z,95.65
2022-12-18T08:46:39.665Z,96.66
2022-12-18T08:49:09.189Z,95.53
2022-12-18T08:51:37.844Z,94.29
2022-12-18T08:54:07.187Z,95.35
2022-12-18T08:56:36.520Z,94.37
2022-12-18T08:59:05.214Z,94.97
2022-12-18T09:01:33.177Z,95.40
2022-12-18T09:04:02.195Z,95.69
2022-12-18T09:06:30.170Z,96.12
2022-12-18T09:08:58.476Z,96.53
2022-12-18T09:11:28.798Z,96.87
2022-12-18T09:14:00.760Z,96.75
2022-12-18T09:16:32.610Z,97.61
2022-12-18T09:19:02.315Z,98.50
2022-12-18T09:21:36.768Z,99.83
2022-12-18T09:24:08.514Z,100.00
2022-12-18T09:26:37.884Z,100.00
2022-12-18T09:29:10.988Z,99.24
2022-12-18T09:31:40.025Z,99.86
2022-12-18T09:34:08.340Z,100.00
2022-12-18T09:36:36.314Z,100.00
2022-12-18T09:39:08.096Z,100.00
2022-12-18T09:41:45.274Z,100.00
2022-12-18T09:44:26.355Z,100.00
2022-12-18T09:47:05.742Z,100.00
2022-12-18T09:49:41.540Z,100.00
2022-12-18T09:52:15.870Z,100.00
2022-12-18T09:54:51.107Z,100.00
2022-12-18T09:57:23.418Z,100.00
2022-12-18T09:59:59.557Z,100.00
2022-12-18T10:02:32.357Z,100.00
2022-12-18T10:05:07.653Z,100.00
2022-12-18T10:07:50.839Z,100.00
2022-12-18T10:10:32.755Z,100.00
2022-12-18T10:13:13.515Z,100.00
2022-12-18T10:15:59.284Z,99.93
2022-12-18T10:18:57.663Z,99.22
2022-12-18T10:21:34.782Z,97.65
2022-12-18T10:24:15.935Z,97.89
2022-12-18T10:26:45.133Z,98.02
2022-12-18T10:29:16.668Z,99.04
2022-12-18T10:31:45.931Z,98.04
2022-12-18T10:34:15.145Z,97.95
2022-12-18T10:36:44.158Z,99.23
2022-12-18T10:39:18.778Z,99.34
2022-12-18T10:41:47.231Z,99.71
2022-12-18T10:44:21.054Z,100.00
2022-12-18T10:46:56.852Z,100.00
2022-12-18T10:49:28.957Z,100.00
2022-12-18T10:52:13.235Z,100.00
2022-12-18T10:54:48.718Z,100.00
2022-12-18T10:57:37.991Z,100.00
2022-12-18T11:00:29.776Z,100.00
2022-12-18T11:02:59.247Z,100.00
2022-12-18T11:05:31.730Z,100.00
2022-12-18T11:08:01.458Z,100.00
2022-12-18T11:10:33.717Z,100.00
2022-12-18T11:13:18.969Z,100.00
2022-12-18T11:15:47.515Z,100.00
2022-12-18T11:18:25.917Z,100.00
2022-12-18T11:20:58.964Z,100.00
2022-12-18T11:23:28.994Z,100.00
2022-12-18T11:26:03.246Z,100.00
2022-12-18T11:28:39.353Z,100.00
2022-12-18T11:31:26.931Z,100.00
2022-12-18T11:34:28.159Z,100.00
2022-12-18T11:36:55.593Z,100.00
2022-12-18T11:39:37.180Z,100.00
2022-12-18T11:42:13.743Z,100.00
2022-12-18T11:44:52.445Z,100.00
2022-12-18T11:47:31.545Z,100.00
2022-12-18T11:50:04.965Z,100.00
2022-12-18T11:52:40.434Z,100.00
2022-12-18T11:55:16.167Z,100.00
2022-12-18T11:57:54.614Z,100.00
2022-12-18T12:00:24.152Z,100.00
2022-12-18T12:03:23.209Z,100.00
2022-12-18T12:06:09.148Z,100.00
2022-12-18T12:08:58.432Z,100.00
2022-12-18T12:11:40.848Z,100.00
2022-12-18T12:14:36.038Z,100.00
2022-12-18T12:17:15.036Z,100.00
2022-12-18T12:19:55.908Z,100.00
2022-12-18T12:22:36.336Z,100.00
2022-12-18T12:25:27.049Z,100.00
2022-12-18T12:28:14.679Z,100.00
2022-12-18T12:30:55.244Z,100.00
2022-12-18T12:33:42.619Z,100.00
2022-12-18T12:36:24.962Z,100.00
2022-12-18T12:39:00.804Z,100.00
2022-12-18T12:41:53.981Z,100.00
2022-12-18T12:44:30.046Z,100.00
2022-12-18T12:47:07.994Z,100.00
2022-12-18T12:49:40.459Z,100.00
2022-12-18T12:52:15.889Z,100.00
2022-12-18T12:54:47.603Z,100.00
2022-12-18T12:57:27.500Z,100.00
2022-12-18T13:00:07.455Z,100.00
2022-12-18T13:02:49.099Z,100.00
2022-12-18T13:05:35.540Z,100.00
2022-12-18T13:08:07.867Z,100.00
2022-12-18T13:10:38.945Z,100.00
2022-12-18T13:13:10.986Z,100.00
2022-12-18T13:15:41.950Z,100.00
2022-12-18T13:18:19.033Z,100.00
2022-12-18T13:20:55.311Z,100.00
2022-12-18T13:23:33.776Z,100.00
2022-12-18T13:26:35.293Z,100.00
2022-12-18T13:29:05.771Z,100.00
2022-12-18T13:32:01.019Z,100.00
2022-12-18T13:34:32.235Z,100.00
2022-12-18T13:37:42.595Z,100.00
2022-12-18T13:40:56.212Z,100.00
2022-12-18T13:43:32.134Z,100.00
2022-12-18T13:46:05.147Z,100.00
2022-12-18T13:48:38.903Z,100.00
2022-12-18T13:51:12.061Z,100.00
2022-12-18T13:53:47.173Z,100.00
2022-12-18T13:56:18.261Z,100.00
2022-12-18T13:59:04.883Z,100.00
2022-12-18T14:01:32.681Z,100.00
2022-12-18T14:04:12.169Z,100.00
2022-12-18T14:06:40.536Z,100.00
2022-12-18T14:09:19.001Z,100.00
2022-12-18T14:11:50.907Z,100.00
2022-12-18T14:14:21.043Z,100.00
2022-12-18T14:16:49.746Z,100.00
2022-12-18T14:19:19.437Z,100.00
2022-12-18T14:21:50.145Z,100.00
2022-12-18T14:24:20.787Z,100.00
2022-12-18T14:26:50.934Z,100.00
2022-12-18T14:29:25.983Z,100.00
2022-12-18T14:32:17.915Z,99.82
2022-12-18T14:34:48.603Z,98.75
2022-12-18T14:37:21.655Z,97.93
2022-12-18T14:40:08.732Z,98.14
2022-12-18T14:42:39.096Z,97.22
2022-12-18T14:45:43.066Z,97.54
2022-12-18T14:48:23.048Z,97.16
2022-12-18T14:51:01.677Z,96.32
2022-12-18T14:53:40.555Z,96.39
2022-12-18T14:56:21.782Z,96.78
2022-12-18T14:58:54.410Z,95.92
2022-12-18T15:01:28.332Z,96.25
2022-12-18T15:03:59.729Z,96.85
2022-12-18T15:06:32.750Z,94.90
2022-12-18T15:09:04.187Z,95.58
2022-12-18T15:11:45.854Z,95.11
2022-12-18T15:14:33.750Z,95.21
2022-12-18T15:17:07.468Z,94.37
2022-12-18T15:19:41.316Z,93.73
2022-12-18T15:22:24.333Z,92.45
2022-12-18T15:24:53.281Z,92.58
2022-12-18T15:27:30.588Z,92.50
2022-12-18T15:30:22.901Z,91.51
2022-12-18T15:33:25.633Z,92.28
2022-12-18T15:35:59.141Z,91.91
2022-12-18T15:38:27.198Z,91.41
2022-12-18T15:40:55.951Z,91.40
2022-12-18T15:43:35.264Z,90.29
2022-12-18T15:46:06.298Z,90.31
2022-12-18T15:48:40.935Z,90.35
2022-12-18T15:51:16.324Z,90.62
2022-12-18T15:53:45.696Z,91.28
2022-12-18T15:56:34.916Z,91.07
2022-12-18T15:59:08.257Z,91.11
2022-12-18T16:01:39.582Z,88.49
2022-12-18T16:04:13.269Z,89.12
2022-12-18T16:07:12.850Z,87.94
2022-12-18T16:09:30.176Z,87.40
2022-12-18T16:12:00.951Z,87.38
2022-12-18T16:14:31.097Z,86.21
2022-12-18T16:17:01.766Z,85.71
2022-12-18T16:19:31.285Z,86.64
2022-12-18T16:22:01.103Z,86.40
2022-12-18T16:24:32.380Z,84.37
2022-12-18T16:27:01.707Z,84.11
2022-12-18T16:29:30.205Z,84.46
2022-12-18T16:32:00.423Z,82.18
2022-12-18T16:34:35.392Z,83.36
2022-12-18T16:37:07.393Z,81.92
2022-12-18T16:39:37.339Z,80.82
2022-12-18T16:42:10.994Z,80.21
2022-12-18T16:44:39.014Z,79.77
2022-12-18T16:47:06.911Z,80.22
2022-12-18T16:49:39.183Z,80.40
2022-12-18T16:52:08.093Z,80.90
2022-12-18T16:54:36.528Z,81.47
2022-12-18T16:57:07.835Z,80.15
2022-12-18T16:59:35.921Z,80.28
2022-12-18T17:02:07.331Z,79.66
2022-12-18T17:04:36.087Z,79.58
2022-12-18T17:07:05.136Z,80.13
2022-12-18T17:09:32.899Z,80.16
2022-12-18T17:12:04.275Z,80.98
2022-12-18T17:14:34.558Z,79.52
2022-12-18T17:19:52.397Z,79.46
2022-12-18T17:22:23.229Z,78.16
2022-12-18T17:24:51.111Z,79.24
2022-12-18T17:27:18.823Z,78.77
2022-12-18T17:29:48.401Z,79.03
2022-12-18T17:32:17.162Z,78.11
2022-12-18T17:34:45.442Z,77.60
2022-12-18T17:37:13.870Z,77.92
2022-12-18T17:39:43.187Z,78.48
2022-12-18T17:42:15.339Z,77.29
2022-12-18T17:44:44.802Z,76.81
2022-12-18T17:47:13.702Z,77.09
2022-12-18T17:49:41.873Z,76.67
2022-12-18T17:52:10.184Z,76.84
2022-12-18T17:54:41.314Z,76.45
2022-12-18T17:57:12.118Z,76.73
2022-12-18T17:59:40.803Z,76.46
2022-12-18T18:02:11.230Z,75.41
2022-12-18T18:04:40.296Z,74.70
2022-12-18T18:07:08.095Z,75.88
2022-12-18T18:09:35.914Z,73.86
2022-12-18T18:12:22.776Z,72.34
2022-12-18T18:14:52.071Z,73.42
2022-12-18T18:17:20.383Z,72.77
2022-12-18T18:19:49.628Z,73.17
2022-12-18T18:22:18.867Z,73.38
2022-12-18T18:24:46.846Z,72.04
2022-12-18T18:27:15.068Z,71.32
2022-12-18T18:29:43.153Z,71.31
2022-12-18T18:32:12.618Z,73.24
2022-12-18T18:34:40.379Z,71.63
2022-12-18T18:37:11.878Z,73.44
2022-12-18T18:39:40.031Z,71.57
2022-12-18T18:42:07.966Z,72.08
2022-12-18T18:44:35.812Z,73.13
2022-12-18T18:47:06.923Z,72.00
2022-12-18T18:49:39.107Z,73.29
2022-12-18T18:52:07.485Z,72.93
2022-12-18T18:54:35.554Z,71.86
2022-12-18T18:57:19.883Z,72.46
2022-12-18T18:59:48.623Z,72.17
2022-12-18T19:02:17.914Z,72.63
2022-12-18T19:04:47.698Z,71.80
2022-12-18T19:07:29.458Z,71.69
2022-12-18T19:10:07.246Z,71.21
2022-12-18T19:12:53.881Z,72.62
2022-12-18T19:15:22.736Z,72.57
2022-12-18T19:17:50.856Z,74.28
2022-12-18T19:20:20.499Z,74.26
2022-12-18T19:22:55.299Z,75.07
2022-12-18T19:25:29.917Z,74.91
2022-12-18T19:28:21.524Z,76.01
2022-12-18T19:30:59.068Z,76.58
2022-12-18T19:33:44.862Z,75.77
2022-12-18T19:36:21.168Z,76.19
2022-12-18T19:38:51.434Z,76.30
2022-12-18T19:41:21.605Z,77.04
2022-12-18T19:43:50.772Z,77.26
2022-12-18T19:46:21.820Z,77.27
2022-12-18T19:48:51.180Z,76.69
2022-12-18T19:51:24.506Z,77.18
2022-12-18T19:53:58.496Z,77.30
2022-12-18T19:56:30.951Z,77.33
2022-12-18T19:58:59.437Z,77.72
2022-12-18T20:01:29.510Z,77.97
2022-12-18T20:03:58.943Z,78.34
2022-12-18T20:06:31.611Z,79.24
2022-12-18T20:09:03.609Z,80.22
2022-12-18T20:11:33.774Z,79.67
2022-12-18T20:14:06.661Z,79.83
2022-12-18T20:16:34.457Z,79.41
2022-12-18T20:19:03.091Z,80.44
2022-12-18T20:21:32.852Z,79.53
2022-12-18T20:24:01.913Z,80.18
2022-12-18T20:26:30.064Z,80.54
2022-12-18T20:28:58.119Z,80.82
2022-12-18T20:31:25.917Z,81.05
2022-12-18T20:33:59.623Z,80.55
2022-12-18T20:36:29.625Z,81.04
2022-12-18T20:39:01.776Z,81.56
2022-12-18T20:41:38.350Z,81.61
2022-12-18T20:44:21.481Z,81.62
2022-12-18T20:46:51.657Z,81.21
2022-12-18T20:49:19.613Z,81.39
2022-12-18T20:51:51.409Z,80.75
2022-12-18T20:54:21.766Z,81.42
2022-12-18T20:56:50.521Z,81.80
2022-12-18T20:59:19.555Z,81.42
2022-12-18T21:01:48.527Z,82.10
2022-12-18T21:04:18.377Z,82.22
2022-12-18T21:06:52.067Z,81.66
2022-12-18T21:09:23.730Z,82.29
2022-12-18T21:12:10.400Z,82.88
2022-12-18T21:14:43.912Z,82.22
2022-12-18T21:17:12.155Z,82.22
2022-12-18T21:19:40.157Z,82.74
2022-12-18T21:22:09.825Z,82.93
2022-12-18T21:24:38.942Z,83.12
2022-12-18T21:27:06.702Z,84.06
2022-12-18T21:29:34.973Z,84.46
2022-12-18T21:32:04.633Z,85.13
2022-12-18T21:34:33.307Z,84.49
2022-12-18T21:37:02.199Z,85.71
2022-12-18T21:39:30.733Z,86.92
2022-12-18T21:42:19.085Z,87.22
2022-12-18T21:44:49.167Z,87.16
2022-12-18T21:47:22.568Z,87.73
2022-12-18T21:49:52.765Z,89.03
2022-12-18T21:52:30.755Z,89.04
2022-12-18T21:55:08.021Z,91.76
2022-12-18T21:57:39.323Z,94.54
2022-12-18T22:00:18.859Z,94.94
2022-12-18T22:02:48.762Z,95.81
2022-12-18T22:05:36.400Z,95.79
2022-12-18T22:08:04.971Z,95.97
2022-12-18T22:10:33.074Z,99.28
2022-12-18T22:13:02.347Z,100.00
2022-12-18T22:15:30.084Z,100.00
2022-12-18T22:18:00.139Z,100.00
2022-12-18T22:20:29.738Z,100.00
2022-12-18T22:22:58.521Z,100.00
2022-12-18T22:25:26.347Z,100.00
2022-12-18T22:28:12.594Z,100.00
2022-12-18T22:30:41.698Z,100.00
2022-12-18T22:33:09.476Z,100.00
2022-12-18T22:35:37.382Z,100.00
2022-12-18T22:38:05.126Z,100.00
2022-12-18T22:40:33.202Z,100.00
2022-12-18T22:43:00.972Z,100.00
2022-12-18T22:45:28.765Z,100.00
2022-12-18T22:47:58.061Z,100.00
2022-12-18T22:50:26.046Z,100.00
2022-12-18T22:52:54.057Z,100.00
2022-12-18T22:55:21.984Z,100.00
2022-12-18T22:57:52.742Z,100.00
2022-12-18T23:00:23.907Z,100.00
2022-12-18T23:02:59.180Z,100.00
2022-12-18T23:05:31.290Z,100.00
2022-12-18T23:07:59.591Z,100.00
2022-12-18T23:10:28.373Z,100.00
2022-12-18T23:12:56.256Z,100.00
2022-12-18T23:15:28.406Z,100.00
2022-12-18T23:17:58.491Z,100.00
2022-12-18T23:20:28.156Z,100.00
2022-12-18T23:22:57.373Z,100.00
2022-12-18T23:25:25.040Z,100.00
2022-12-18T23:27:52.825Z,100.00
2022-12-18T23:30:20.689Z,100.00
2022-12-18T23:32:48.470Z,100.00
2022-12-18T23:35:17.225Z,100.00
2022-12-18T23:37:58.791Z,100.00
2022-12-18T23:40:29.963Z,100.00
2022-12-18T23:43:00.228Z,100.00
2022-12-18T23:45:28.290Z,100.00
2022-12-18T23:47:56.134Z,100.00
2022-12-18T23:50:29.026Z,100.00
2022-12-18T23:53:04.704Z,100.00
2022-12-18T23:55:39.830Z,100.00
2022-12-18T23:58:14.974Z,100.00
